Time;durP1;ratioP1;P1;durP2;ratioP2;P2;SDS_P1;SDS_P2;PMS_P1;PMS_P2;Temp;Humidity;BMP_temperature;BMP_pressure;BME280_temperature;BME280_humidity;BME280_pressure;Samples;Min_cycle;Max_cycle;Signal;HPM_P1;HPM_P2
2021/06/30 00:02:11;;;;;;;7.83;6.95;;;;;;;20.77;73.76;97560.04;126429;1093;26251;-80
2021/06/30 00:04:53;;;;;;;8.10;7.40;;;;;;;20.73;74.16;97564.59;126348;1092;22758;-80
2021/06/30 00:07:21;;;;;;;8.73;7.80;;;;;;;20.70;74.31;97568.06;126480;1093;25868;-80
2021/06/30 00:09:48;;;;;;;9.53;8.03;;;;;;;20.70;74.32;97583.83;126452;1093;22772;-80
2021/06/30 00:12:15;;;;;;;8.95;7.70;;;;;;;20.70;74.37;97575.52;126225;1093;22787;-80
2021/06/30 00:14:42;;;;;;;8.93;7.05;;;;;;;20.67;74.43;97588.08;126054;1093;22761;-81
2021/06/30 00:17:10;;;;;;;7.23;6.50;;;;;;;20.68;74.68;97578.63;126170;1093;22762;-81
2021/06/30 00:19:37;;;;;;;8.97;6.70;;;;;;;20.68;74.39;97584.16;126119;1093;24475;-81
2021/06/30 00:22:04;;;;;;;10.95;7.30;;;;;;;20.69;75.11;97582.22;126220;1092;26350;-81
2021/06/30 00:24:31;;;;;;;8.75;7.85;;;;;;;20.67;74.72;97583.35;126009;1093;22781;-81
2021/06/30 00:26:59;;;;;;;9.05;7.90;;;;;;;20.67;74.92;97588.08;126237;1093;22806;-81
2021/06/30 00:29:25;;;;;;;8.38;7.58;;;;;;;20.66;74.66;97567.08;126078;1093;24441;-81
2021/06/30 00:31:52;;;;;;;9.35;7.63;;;;;;;20.63;74.88;97563.04;126181;1092;22781;-81
2021/06/30 00:34:19;;;;;;;8.73;7.93;;;;;;;20.64;75.14;97555.54;126034;1093;22784;-81
2021/06/30 00:36:47;;;;;;;9.48;8.18;;;;;;;20.64;75.44;97586.78;125994;1093;23655;-81
2021/06/30 00:39:19;;;;;;;9.23;8.28;;;;;;;20.66;75.18;97650.08;126200;1093;22768;-81
2021/06/30 00:41:46;;;;;;;10.23;7.73;;;;;;;20.58;76.24;97773.44;126075;1093;22758;-82
2021/06/30 00:44:13;;;;;;;11.83;9.38;;;;;;;20.50;76.74;97804.67;126062;1093;22810;-82
2021/06/30 00:46:41;;;;;;;12.65;10.28;;;;;;;20.47;76.66;97662.33;126278;1093;22768;-82
2021/06/30 00:49:09;;;;;;;14.05;9.83;;;;;;;20.51;76.49;97715.03;126184;1093;22794;-82
2021/06/30 00:51:36;;;;;;;12.28;10.23;;;;;;;20.57;76.38;97708.17;126214;1092;26284;-82
2021/06/30 00:54:03;;;;;;;11.80;9.98;;;;;;;20.64;76.11;97705.73;126150;1093;22838;-82
2021/06/30 00:56:30;;;;;;;12.03;10.13;;;;;;;20.72;76.16;97709.64;126180;1093;25860;-82
2021/06/30 00:59:00;;;;;;;11.93;10.10;;;;;;;20.77;76.04;97726.07;126520;1092;22995;-82
2021/06/30 01:01:28;;;;;;;13.70;10.63;;;;;;;20.82;75.94;97725.89;126493;1092;25868;-81
2021/06/30 01:03:55;;;;;;;10.90;9.70;;;;;;;20.85;75.98;97733.52;126331;1092;25979;-82
2021/06/30 01:06:22;;;;;;;12.45;9.60;;;;;;;20.88;76.12;97739.55;126373;1093;23547;-81
2021/06/30 01:08:49;;;;;;;11.10;8.78;;;;;;;20.85;76.80;97741.02;126495;1092;22781;-82
2021/06/30 01:11:17;;;;;;;14.95;10.68;;;;;;;20.81;76.44;97742.83;126626;1093;26408;-81
2021/06/30 01:13:44;;;;;;;10.75;9.63;;;;;;;20.75;76.91;97747.73;126260;1093;22818;-82
2021/06/30 01:16:11;;;;;;;14.60;9.53;;;;;;;20.70;77.24;97756.20;126475;1093;24784;-82
2021/06/30 01:18:38;;;;;;;9.88;8.60;;;;;;;20.71;77.45;97749.51;126604;1093;23562;-81
2021/06/30 01:21:08;;;;;;;9.18;8.28;;;;;;;20.74;76.79;97751.63;126333;1093;23617;-81
2021/06/30 01:23:36;;;;;;;9.33;8.40;;;;;;;20.80;76.76;97755.02;126671;1093;22844;-82
2021/06/30 01:26:04;;;;;;;13.08;9.33;;;;;;;20.82;76.98;97745.27;126344;1092;22781;-81
2021/06/30 01:28:31;;;;;;;12.93;10.10;;;;;;;20.84;77.52;97751.28;126524;1093;22823;-81
2021/06/30 01:30:58;;;;;;;12.35;9.60;;;;;;;20.81;77.73;97753.89;126527;1092;22836;-82
2021/06/30 01:33:25;;;;;;;8.78;7.00;;;;;;;20.78;77.18;97747.05;126410;1092;26311;-82
2021/06/30 01:35:53;;;;;;;10.75;6.60;;;;;;;20.73;75.73;97758.29;126428;1093;23381;-82
2021/06/30 01:38:23;;;;;;;7.45;6.40;;;;;;;20.69;75.55;97764.83;126345;1093;26941;-82
2021/06/30 01:41:04;;;;;;;7.78;6.08;;;;;;;20.65;75.25;97768.25;126380;1093;22871;-82
2021/06/30 01:43:31;;;;;;;9.80;5.58;;;;;;;20.59;74.81;97739.11;126367;1093;25956;-83
2021/06/30 01:45:58;;;;;;;8.77;5.97;;;;;;;20.54;74.88;97746.74;126565;1093;22787;-82
2021/06/30 01:48:25;;;;;;;6.60;5.68;;;;;;;20.48;74.85;97759.94;126355;1093;22815;-82
2021/06/30 01:50:52;;;;;;;8.55;6.00;;;;;;;20.47;75.07;97774.92;126534;1093;22791;-81
2021/06/30 01:53:20;;;;;;;11.10;6.43;;;;;;;20.44;75.42;97756.21;126489;1093;24133;-81
2021/06/30 01:55:47;;;;;;;9.60;6.70;;;;;;;20.42;75.87;97745.47;126295;1093;22748;-82
2021/06/30 01:58:23;;;;;;;7.70;6.05;;;;;;;20.40;75.94;97747.76;126324;1093;22751;-82
2021/06/30 02:00:54;;;;;;;6.38;5.70;;;;;;;20.41;76.08;97735.53;126356;1093;26236;-82
2021/06/30 02:03:22;;;;;;;10.13;4.60;;;;;;;20.39;75.25;97704.63;126495;1093;24291;-82
2021/06/30 02:05:48;;;;;;;10.40;5.58;;;;;;;20.41;75.62;97696.81;126307;1093;22933;-82
2021/06/30 02:08:17;;;;;;;10.33;6.03;;;;;;;20.38;75.80;97680.91;126336;1093;22748;-82
2021/06/30 02:10:44;;;;;;;;;;;;;;;20.36;75.57;97688.72;126526;1092;22748;-82
2021/06/30 02:13:12;;;;;;;6.55;3.63;;;;;;;20.36;74.81;97687.89;126455;1092;21521;-82
2021/06/30 02:15:41;;;;;;;6.27;4.53;;;;;;;20.33;75.00;97678.31;126575;1092;22923;-82
2021/06/30 02:18:08;;;;;;;7.15;4.40;;;;;;;20.28;74.90;97670.98;126410;1093;23458;-82
2021/06/30 02:20:36;;;;;;;6.50;4.83;;;;;;;20.23;75.23;97654.56;126295;1093;23027;-82
2021/06/30 02:23:03;;;;;;;4.85;4.30;;;;;;;20.16;75.35;97618.31;126575;1093;22928;-82
2021/06/30 02:25:31;;;;;;;6.35;4.20;;;;;;;20.05;76.05;97510.06;126644;1093;22880;-82
2021/06/30 02:27:58;;;;;;;6.18;4.95;;;;;;;19.91;76.80;97455.00;126374;1093;22760;-82
2021/06/30 02:30:28;;;;;;;8.45;4.70;;;;;;;19.80;77.11;97456.52;126355;1093;22807;-82
2021/06/30 02:32:56;;;;;;;5.95;4.98;;;;;;;19.70;77.22;97476.97;126626;1092;25871;-82
2021/06/30 02:35:25;;;;;;;5.53;4.40;;;;;;;19.62;77.42;97494.39;126428;1093;25250;-82
2021/06/30 02:37:54;;;;;;;7.20;5.08;;;;;;;19.50;77.84;97499.77;126543;1092;27409;-82
2021/06/30 02:40:23;;;;;;;7.58;4.78;;;;;;;19.42;78.07;97498.63;126544;1093;24587;-83
2021/06/30 02:42:51;;;;;;;8.23;4.87;;;;;;;19.40;78.51;97480.78;126392;1093;22793;-82
2021/06/30 02:45:19;;;;;;;7.38;5.33;;;;;;;19.43;79.08;97483.70;126338;1093;22918;-82
2021/06/30 02:47:49;;;;;;;7.27;5.40;;;;;;;19.43;78.88;97488.42;126571;1091;22930;-82
2021/06/30 02:50:18;;;;;;;8.78;6.08;;;;;;;19.46;79.29;97518.11;126371;1093;26276;-82
2021/06/30 02:53:00;;;;;;;8.43;5.45;;;;;;;19.49;79.35;97545.09;126559;1092;22758;-82
2021/06/30 02:55:26;;;;;;;9.43;5.23;;;;;;;19.49;79.31;97548.65;126654;1092;23316;-82
2021/06/30 02:57:53;;;;;;;5.50;4.48;;;;;;;19.43;79.20;97551.92;126283;1093;22764;-82
2021/06/30 03:00:35;;;;;;;8.85;4.80;;;;;;;19.37;79.09;97548.52;126344;1093;22764;-82
2021/06/30 03:03:02;;;;;;;7.70;4.45;;;;;;;19.33;79.52;97533.72;126358;1093;22913;-82
2021/06/30 03:05:29;;;;;;;4.55;4.15;;;;;;;19.31;79.82;97534.05;126288;1093;22872;-82
2021/06/30 03:07:56;;;;;;;9.70;4.10;;;;;;;19.33;79.96;97548.33;126321;1093;22941;-82
2021/06/30 03:10:23;;;;;;;7.98;3.95;;;;;;;19.36;79.81;97538.60;126292;1093;22785;-82
2021/06/30 03:12:50;;;;;;;9.45;3.75;;;;;;;19.33;79.84;97536.48;126671;1092;25867;-82
2021/06/30 03:15:17;;;;;;;5.58;3.63;;;;;;;19.29;79.94;97521.72;126574;1092;22780;-82
2021/06/30 03:17:44;;;;;;;5.23;3.98;;;;;;;19.24;79.93;97527.40;126399;1093;22797;-82
2021/06/30 03:20:14;;;;;;;4.50;3.68;;;;;;;19.23;80.45;97536.80;126328;1093;22797;-82
2021/06/30 03:22:42;;;;;;;6.75;3.38;;;;;;;19.28;80.50;97558.73;126460;1092;22797;-82
2021/06/30 03:25:13;;;;;;;4.48;3.10;;;;;;;19.29;80.35;97555.64;126573;1093;22789;-82
2021/06/30 03:27:42;;;;;;;3.55;3.08;;;;;;;19.31;80.50;97550.61;126726;1092;27261;-82
2021/06/30 03:30:11;;;;;;;9.38;3.10;;;;;;;19.35;80.47;97562.65;126545;1092;28455;-82
2021/06/30 03:32:53;;;;;;;5.70;2.77;;;;;;;19.37;79.79;97550.45;126307;1093;22775;-82
2021/06/30 03:35:19;;;;;;;7.25;3.10;;;;;;;19.38;80.40;97563.94;126332;1093;26098;-82
2021/06/30 03:37:46;;;;;;;10.00;2.83;;;;;;;19.38;80.10;97561.17;126246;1092;22864;-82
2021/06/30 03:40:14;;;;;;;4.83;2.63;;;;;;;19.43;80.09;97569.30;126357;1092;23247;-82
2021/06/30 03:42:40;;;;;;;5.90;3.03;;;;;;;19.45;79.71;97571.73;126315;1092;27412;-82
2021/06/30 03:45:08;;;;;;;7.90;2.95;;;;;;;19.51;79.76;97574.02;126369;1093;22784;-82
2021/06/30 03:47:35;;;;;;;9.25;3.13;;;;;;;19.57;79.72;97571.89;126333;1093;22763;-82
2021/06/30 03:50:04;;;;;;;6.33;3.00;;;;;;;19.64;79.57;97563.13;126462;1093;22761;-82
2021/06/30 03:52:31;;;;;;;6.15;2.58;;;;;;;19.71;79.32;97574.48;126368;1093;25874;-82
2021/06/30 03:55:12;;;;;;;7.10;3.43;;;;;;;19.72;78.87;97587.14;126551;1093;24407;-82
2021/06/30 03:57:39;;;;;;;9.20;3.33;;;;;;;19.69;79.18;97598.87;126568;1092;22843;-82
2021/06/30 04:00:07;;;;;;;7.50;3.70;;;;;;;19.63;79.03;97612.01;126470;1092;22802;-82
2021/06/30 04:02:39;;;;;;;7.73;4.00;;;;;;;19.56;79.49;97611.69;126412;1093;23437;-82
2021/06/30 04:05:06;;;;;;;8.37;3.80;;;;;;;19.46;79.76;97637.69;126508;1093;26233;-82
2021/06/30 04:07:34;;;;;;;5.73;3.65;;;;;;;19.36;80.35;97649.04;126447;1092;22916;-83
2021/06/30 04:10:05;;;;;;;5.08;3.73;;;;;;;19.28;80.70;97664.47;126387;1093;22809;-82
2021/06/30 04:12:32;;;;;;;7.83;4.33;;;;;;;19.21;81.18;97675.17;126314;1093;22924;-82
2021/06/30 04:15:14;;;;;;;7.83;4.43;;;;;;;19.14;81.36;97691.36;126419;1093;22778;-82
2021/06/30 04:17:41;;;;;;;5.45;3.65;;;;;;;19.10;82.35;97693.94;126417;1092;22986;-82
2021/06/30 04:20:10;;;;;;;6.55;4.05;;;;;;;19.07;81.76;97691.02;126490;1093;22784;-82
2021/06/30 04:22:37;;;;;;;4.55;3.40;;;;;;;19.08;82.20;97698.17;126493;1093;25867;-82
2021/06/30 04:25:06;;;;;;;7.00;3.70;;;;;;;19.07;82.14;97708.41;126575;1093;22761;-82
2021/06/30 04:27:34;;;;;;;8.88;3.20;;;;;;;19.10;82.00;97707.74;126611;1093;22915;-82
2021/06/30 04:30:02;;;;;;;5.08;3.70;;;;;;;19.08;81.97;97710.02;126427;1093;22798;-81
2021/06/30 04:32:30;;;;;;;9.07;4.07;;;;;;;19.06;82.25;97717.00;126358;1093;26280;-82
2021/06/30 04:35:11;;;;;;;7.93;4.10;;;;;;;19.05;82.34;97718.95;126589;1093;22781;-82
2021/06/30 04:37:38;;;;;;;5.37;4.10;;;;;;;19.09;82.48;97727.41;126425;1093;22772;-81
2021/06/30 04:40:06;;;;;;;8.80;4.00;;;;;;;19.14;82.13;97735.52;126380;1092;22953;-82
2021/06/30 04:42:32;;;;;;;11.25;5.18;;;;;;;19.21;82.39;97724.02;126276;1092;24409;-81
2021/06/30 04:44:59;;;;;;;7.18;3.80;;;;;;;19.30;81.67;97716.57;126350;1093;22764;-82
2021/06/30 04:47:26;;;;;;;7.60;3.97;;;;;;;19.37;81.53;97725.23;126263;1093;22919;-81
2021/06/30 04:49:53;;;;;;;7.40;4.45;;;;;;;19.41;81.26;97741.96;126490;1093;22761;-82
2021/06/30 04:52:34;;;;;;;6.10;3.83;;;;;;;19.44;81.60;97733.85;126356;1093;25910;-84
2021/06/30 04:55:01;;;;;;;8.35;4.20;;;;;;;19.52;81.44;97733.03;126338;1093;22844;-82
2021/06/30 04:57:28;;;;;;;6.93;3.83;;;;;;;19.61;81.45;97730.30;126482;1092;22810;-82
2021/06/30 04:59:55;;;;;;;9.87;4.43;;;;;;;19.74;81.31;97731.31;126068;1093;22810;-82
2021/06/30 05:02:21;;;;;;;9.20;4.07;;;;;;;19.83;80.50;97731.33;126234;1093;22812;-81
2021/06/30 05:05:03;;;;;;;7.58;3.90;;;;;;;19.90;80.06;97737.17;125990;1092;22772;-82
2021/06/30 05:07:30;;;;;;;12.10;4.45;;;;;;;19.94;80.43;97746.47;126196;1093;22945;-82
2021/06/30 05:09:57;;;;;;;7.30;4.13;;;;;;;19.99;80.63;97746.31;126131;1093;27135;-82
2021/06/30 05:12:24;;;;;;;7.03;4.48;;;;;;;20.15;80.41;97751.33;126207;1093;22841;-82
2021/06/30 05:14:50;;;;;;;11.38;5.50;;;;;;;20.28;79.77;97742.07;126171;1093;22873;-82
2021/06/30 05:17:17;;;;;;;8.93;4.08;;;;;;;20.39;78.68;97751.65;126169;1093;22794;-82
2021/06/30 05:19:44;;;;;;;7.10;4.10;;;;;;;20.47;78.81;97753.60;126218;1093;22815;-82
2021/06/30 05:22:26;;;;;;;6.10;3.48;;;;;;;20.53;78.70;97758.97;126012;1093;22757;-82
2021/06/30 05:24:53;;;;;;;9.48;4.35;;;;;;;20.54;77.87;97772.47;126221;1093;22764;-82
2021/06/30 05:27:19;;;;;;;4.53;3.95;;;;;;;20.54;78.04;97763.34;126200;1093;22787;-82
2021/06/30 05:29:47;;;;;;;4.80;3.43;;;;;;;20.53;78.03;97767.27;126210;1093;22757;-82
2021/06/30 05:32:14;;;;;;;10.23;4.30;;;;;;;20.54;78.11;97771.64;126021;1093;22916;-82
2021/06/30 05:34:41;;;;;;;9.10;4.65;;;;;;;20.56;78.16;97774.92;126203;1092;22891;-82
2021/06/30 05:37:23;;;;;;;6.60;3.75;;;;;;;20.61;78.01;97770.05;126214;1093;22809;-82
2021/06/30 05:39:50;;;;;;;11.45;3.80;;;;;;;20.67;77.77;97767.92;126626;1092;22789;-82
2021/06/30 05:42:16;;;;;;;12.73;4.40;;;;;;;20.67;77.73;97760.42;126417;1093;26274;-83
2021/06/30 05:44:43;;;;;;;6.93;4.85;;;;;;;20.66;77.92;97769.88;126357;1093;22784;-82
2021/06/30 05:47:10;;;;;;;10.70;4.80;;;;;;;20.69;78.07;97768.40;126475;1093;22781;-82
2021/06/30 05:49:37;;;;;;;8.03;4.15;;;;;;;20.68;77.54;97775.06;126411;1093;22739;-82
2021/06/30 05:52:04;;;;;;;6.43;4.25;;;;;;;20.64;77.08;97769.38;126610;1093;22781;-83
2021/06/30 05:54:46;;;;;;;6.00;4.08;;;;;;;20.56;76.21;97767.42;126460;1093;22807;-82
2021/06/30 05:57:12;;;;;;;7.45;4.50;;;;;;;20.54;76.85;97766.11;126391;1093;22826;-83
2021/06/30 05:59:39;;;;;;;7.23;4.60;;;;;;;20.58;77.08;97762.38;126480;1093;24437;-82
2021/06/30 06:02:07;;;;;;;8.65;4.30;;;;;;;20.69;76.42;97773.94;126340;1093;22827;-82
2021/06/30 06:04:33;;;;;;;8.98;4.33;;;;;;;20.83;76.93;97770.98;126353;1093;22790;-83
2021/06/30 06:07:00;;;;;;;7.15;3.93;;;;;;;20.88;76.00;97775.54;126314;1093;22916;-83
2021/06/30 06:09:27;;;;;;;6.55;4.35;;;;;;;20.91;76.52;97774.85;126282;1093;24938;-83
2021/06/30 06:11:54;;;;;;;6.73;4.15;;;;;;;21.04;76.20;97777.42;126476;1092;22898;-82
2021/06/30 06:14:21;;;;;;;5.83;3.17;;;;;;;21.16;75.55;97765.66;126607;1092;22866;-82
2021/06/30 06:16:48;;;;;;;9.23;4.30;;;;;;;21.26;75.53;97775.55;126324;1093;23052;-82
2021/06/30 06:19:15;;;;;;;5.73;3.58;;;;;;;21.34;74.09;97757.28;126306;1093;22765;-81
2021/06/30 06:21:42;;;;;;;5.20;3.65;;;;;;;21.43;75.23;97763.59;126047;1093;23314;-82
2021/06/30 06:24:09;;;;;;;6.10;3.63;;;;;;;21.48;73.67;97763.44;126063;1093;22925;-82
2021/06/30 06:26:36;;;;;;;5.93;3.53;;;;;;;21.48;72.96;97765.38;125992;1092;26248;-82
2021/06/30 06:29:04;;;;;;;6.20;4.10;;;;;;;21.52;73.26;97761.61;126193;1093;25868;-83
2021/06/30 06:31:47;;;;;;;8.10;3.88;;;;;;;21.56;72.14;97762.55;126216;1092;22787;-83
2021/06/30 06:34:19;;;;;;;9.10;4.13;;;;;;;21.64;73.01;97765.61;126160;1093;22774;-83
2021/06/30 06:36:50;;;;;;;7.18;3.70;;;;;;;21.70;72.58;97767.86;126064;1092;22809;-83
2021/06/30 06:39:19;;;;;;;6.30;3.38;;;;;;;21.79;72.04;97763.06;126181;1093;22947;-83
2021/06/30 06:41:47;;;;;;;6.88;3.75;;;;;;;21.87;70.77;97757.80;126103;1093;22868;-83
2021/06/30 06:44:15;;;;;;;7.65;3.48;;;;;;;21.98;71.46;97754.30;126231;1093;22754;-82
2021/06/30 06:46:43;;;;;;;5.63;3.07;;;;;;;22.11;70.34;97766.27;126223;1093;22754;-82
2021/06/30 06:49:10;;;;;;;4.10;3.50;;;;;;;22.20;69.57;97757.88;126019;1093;22771;-83
2021/06/30 06:51:39;;;;;;;5.18;3.35;;;;;;;22.31;69.42;97750.81;125982;1093;27195;-83
2021/06/30 06:54:07;;;;;;;5.03;3.55;;;;;;;22.40;68.90;97753.52;125988;1093;22787;-83
2021/06/30 06:56:35;;;;;;;5.25;3.20;;;;;;;22.52;68.85;97756.34;126195;1093;22787;-82
2021/06/30 06:59:02;;;;;;;5.60;3.30;;;;;;;22.61;68.80;97758.20;126222;1093;24610;-82
2021/06/30 07:01:29;;;;;;;5.70;3.03;;;;;;;22.74;68.23;97765.42;126182;1093;22848;-82
2021/06/30 07:03:55;;;;;;;3.58;2.60;;;;;;;22.87;66.92;97769.84;126037;1093;22787;-83
2021/06/30 07:06:22;;;;;;;5.18;2.93;;;;;;;22.96;65.72;97761.42;126043;1093;22764;-82
2021/06/30 07:08:49;;;;;;;6.20;2.93;;;;;;;23.07;65.56;97756.26;126278;1093;22764;-82
2021/06/30 07:11:16;;;;;;;3.73;2.33;;;;;;;23.15;65.04;97755.36;126209;1093;22957;-82
2021/06/30 07:13:44;;;;;;;3.68;2.33;;;;;;;23.19;65.04;97742.39;126048;1093;22938;-82
2021/06/30 07:16:11;;;;;;;3.90;2.65;;;;;;;23.22;65.90;97744.48;126192;1093;22787;-82
2021/06/30 07:18:38;;;;;;;5.88;2.50;;;;;;;23.27;65.54;97751.79;126195;1093;22841;-82
2021/06/30 07:21:08;;;;;;;4.48;2.35;;;;;;;23.27;65.02;97752.59;126016;1093;22759;-82
2021/06/30 07:23:36;;;;;;;5.95;2.95;;;;;;;23.24;64.98;97760.80;126119;1093;22854;-83
2021/06/30 07:26:06;;;;;;;3.38;2.55;;;;;;;23.22;65.24;97752.02;126770;1093;22845;-82
2021/06/30 07:28:34;;;;;;;6.88;2.23;;;;;;;23.20;65.50;97748.77;126280;1093;22957;-83
2021/06/30 07:31:01;;;;;;;4.60;2.78;;;;;;;23.19;65.46;97750.72;126146;1093;22922;-83
2021/06/30 07:33:28;;;;;;;3.73;2.50;;;;;;;23.13;65.46;97755.70;126059;1093;22839;-83
2021/06/30 07:36:11;;;;;;;4.18;2.38;;;;;;;23.09;66.00;97752.00;126190;1093;26277;-82
2021/06/30 07:38:38;;;;;;;2.20;1.98;;;;;;;23.08;65.35;97752.34;126257;1093;22754;-83
2021/06/30 07:41:05;;;;;;;2.60;1.75;;;;;;;23.11;64.28;97757.21;126196;1093;22788;-82
2021/06/30 07:43:32;;;;;;;3.23;1.58;;;;;;;23.13;63.69;97754.89;126173;1093;22915;-83
2021/06/30 07:46:13;;;;;;;2.53;1.45;;;;;;;23.16;63.24;97762.55;126014;1093;22835;-83
2021/06/30 07:48:40;;;;;;;3.95;1.70;;;;;;;23.17;63.34;97761.38;126201;1092;22769;-83
2021/06/30 07:51:08;;;;;;;2.35;1.63;;;;;;;23.17;62.84;97761.38;126157;1093;22823;-84
2021/06/30 07:53:34;;;;;;;5.68;2.23;;;;;;;23.19;64.01;97756.27;126049;1093;22769;-83
2021/06/30 07:56:01;;;;;;;3.28;2.00;;;;;;;23.25;64.10;97751.33;126058;1093;22787;-83
2021/06/30 07:58:28;;;;;;;3.90;2.18;;;;;;;23.35;63.27;97758.38;126084;1093;22925;-83
2021/06/30 08:01:10;;;;;;;3.38;2.05;;;;;;;23.45;63.77;97753.17;126077;1093;22760;-82
2021/06/30 08:03:51;;;;;;;2.38;1.60;;;;;;;23.57;62.12;97751.53;126311;1093;22760;-83
2021/06/30 08:06:18;;;;;;;2.85;1.28;;;;;;;23.61;62.05;97750.50;126065;1093;22795;-82
2021/06/30 08:08:45;;;;;;;1.40;1.20;;;;;;;23.70;60.12;97753.95;126119;1093;22787;-82
2021/06/30 08:11:12;;;;;;;2.23;1.10;;;;;;;23.71;59.44;97749.23;126132;1093;22777;-83
2021/06/30 08:13:38;;;;;;;2.70;1.38;;;;;;;23.76;60.42;97737.88;126225;1093;27188;-83
2021/06/30 08:16:05;;;;;;;2.03;1.18;;;;;;;23.80;59.11;97741.59;126090;1093;26245;-83
2021/06/30 08:18:32;;;;;;;3.95;1.30;;;;;;;23.83;59.27;97729.78;126368;1092;25867;-83
2021/06/30 08:20:59;;;;;;;2.53;1.00;;;;;;;23.91;59.92;97738.34;126251;1092;22743;-82
2021/06/30 08:23:26;;;;;;;2.43;1.20;;;;;;;23.94;58.80;97738.44;126114;1093;25987;-83
2021/06/30 08:25:53;;;;;;;2.53;1.60;;;;;;;23.83;59.53;97740.07;126081;1093;22784;-82
2021/06/30 08:28:25;;;;;;;2.30;1.30;;;;;;;23.70;59.58;97742.03;126078;1093;27319;-83
2021/06/30 08:30:52;;;;;;;2.90;1.30;;;;;;;23.63;59.98;97741.81;126236;1093;27154;-82
2021/06/30 08:33:19;;;;;;;2.33;1.33;;;;;;;23.70;60.64;97742.84;126242;1093;22815;-83
2021/06/30 08:35:46;;;;;;;2.98;1.70;;;;;;;23.86;61.93;97739.38;126063;1093;22788;-83
2021/06/30 08:38:13;;;;;;;3.90;1.30;;;;;;;24.02;60.52;97745.82;126235;1092;27182;-83
2021/06/30 08:40:40;;;;;;;2.45;1.60;;;;;;;24.17;59.32;97741.52;126248;1092;22767;-83
2021/06/30 08:43:07;;;;;;;1.73;1.48;;;;;;;24.32;59.46;97737.16;126187;1093;22831;-83
2021/06/30 08:45:36;;;;;;;2.43;1.50;;;;;;;24.33;60.21;97738.79;126066;1093;22845;-83
2021/06/30 08:48:03;;;;;;;;;;;;;;;24.42;59.59;97739.44;126084;1093;22797;-83
2021/06/30 08:50:34;;;;;;;1.95;1.43;;;;;;;24.49;58.96;97735.22;125998;1093;21696;-83
2021/06/30 08:53:03;;;;;;;2.80;1.45;;;;;;;24.52;58.26;97723.39;126111;1093;22851;-83
2021/06/30 08:55:31;;;;;;;2.43;1.20;;;;;;;24.61;57.91;97730.46;126047;1093;22820;-83
2021/06/30 08:57:59;;;;;;;1.60;1.25;;;;;;;24.73;56.43;97725.98;126066;1093;22764;-83
2021/06/30 09:00:26;;;;;;;1.85;1.15;;;;;;;24.83;55.33;97719.89;126056;1092;22851;-83
2021/06/30 09:02:58;;;;;;;3.35;1.40;;;;;;;24.91;55.15;97726.45;126052;1093;25868;-83
2021/06/30 09:07:57;;;;;;;5.53;1.30;;;;;;;25.08;54.58;97733.66;126008;1093;22788;-82
2021/06/30 09:10:36;;;;;;;3.57;1.20;;;;;;;25.12;54.44;97731.77;126027;1093;26331;-82
2021/06/30 09:13:07;;;;;;;1.48;1.10;;;;;;;25.20;54.73;97736.36;126172;1093;22925;-83
2021/06/30 09:15:37;;;;;;;1.50;1.30;;;;;;;25.27;54.38;97738.52;126214;1093;22758;-83
2021/06/30 09:18:34;;;;;;;2.40;1.20;;;;;;;25.33;54.23;97731.52;126189;1093;22764;-83
2021/06/30 09:21:28;;;;;;;1.35;1.20;;;;;;;25.43;54.72;97732.94;126205;1092;22758;-82
2021/06/30 09:24:08;;;;;;;1.37;1.03;;;;;;;25.53;53.32;97741.59;126278;1093;22739;-83
2021/06/30 09:26:37;;;;;;;1.88;1.25;;;;;;;25.57;53.19;97744.45;126246;1093;22937;-83
2021/06/30 09:29:07;;;;;;;2.28;1.43;;;;;;;25.57;53.32;97742.47;126062;1092;22780;-82
2021/06/30 09:31:41;;;;;;;2.38;1.30;;;;;;;25.64;52.19;97730.69;126193;1093;22919;-83
2021/06/30 09:34:09;;;;;;;2.73;1.50;;;;;;;25.73;52.15;97734.08;126045;1093;22915;-83
2021/06/30 09:36:56;;;;;;;2.93;1.70;;;;;;;25.85;52.37;97732.33;126191;1093;22760;-83
2021/06/30 09:39:25;;;;;;;3.33;1.60;;;;;;;26.02;52.11;97747.89;126221;1093;23684;-83
2021/06/30 09:42:14;;;;;;;1.23;1.00;;;;;;;26.10;51.30;97742.09;126103;1093;22748;-83
2021/06/30 09:44:45;;;;;;;1.68;1.10;;;;;;;26.09;51.51;97734.09;126171;1093;22809;-83
2021/06/30 09:47:13;;;;;;;2.50;0.90;;;;;;;26.13;51.33;97733.00;126212;1092;22761;-83
2021/06/30 09:49:41;;;;;;;2.18;1.15;;;;;;;26.29;50.82;97732.11;126111;1093;27396;-83
2021/06/30 09:52:12;;;;;;;2.60;1.18;;;;;;;26.50;51.25;97732.53;126123;1093;22812;-82
2021/06/30 09:54:54;;;;;;;3.90;1.10;;;;;;;26.68;50.29;97718.97;126261;1093;22794;-83
2021/06/30 09:57:21;;;;;;;2.10;1.23;;;;;;;26.84;49.22;97730.05;126066;1093;22856;-83
2021/06/30 09:59:48;;;;;;;1.88;0.75;;;;;;;26.93;48.92;97731.77;126175;1092;22919;-83
2021/06/30 10:02:22;;;;;;;2.90;1.00;;;;;;;27.00;49.22;97740.28;126234;1093;26233;-82
2021/06/30 10:05:01;;;;;;;1.80;1.40;;;;;;;27.02;47.46;97735.95;126196;1092;22802;-83
2021/06/30 10:07:30;;;;;;;2.90;0.90;;;;;;;27.08;48.29;97737.23;126071;1093;22768;-83
2021/06/30 10:10:06;;;;;;;2.58;0.98;;;;;;;27.14;49.19;97742.52;126290;1091;25871;-83
2021/06/30 10:12:34;;;;;;;2.03;1.00;;;;;;;27.18;47.27;97737.79;126037;1093;26312;-84
2021/06/30 10:15:04;;;;;;;2.48;1.38;;;;;;;27.20;48.98;97753.02;126013;1093;22813;-83
2021/06/30 10:17:32;;;;;;;2.00;0.90;;;;;;;27.24;49.06;97748.30;126056;1093;24149;-82
2021/06/30 10:20:02;;;;;;;1.85;1.30;;;;;;;27.28;48.34;97746.39;126519;1093;24456;-83
2021/06/30 10:22:29;;;;;;;5.35;1.70;;;;;;;27.42;48.92;97737.44;126261;1093;22757;-83
2021/06/30 10:24:57;;;;;;;1.35;1.00;;;;;;;27.40;46.30;97731.41;126323;1093;24559;-83
2021/06/30 10:27:25;;;;;;;1.53;1.08;;;;;;;27.33;47.41;97736.09;126240;1093;22869;-83
2021/06/30 10:29:58;;;;;;;1.40;0.90;;;;;;;27.33;47.94;97736.09;126354;1093;22787;-83
2021/06/30 10:32:26;;;;;;;1.73;1.00;;;;;;;27.35;46.78;97731.73;126273;1093;26282;-83
2021/06/30 10:34:56;;;;;;;1.35;0.90;;;;;;;27.36;45.75;97726.96;126368;1092;22932;-83
2021/06/30 10:37:37;;;;;;;2.98;1.00;;;;;;;27.29;47.31;97733.23;126397;1093;26281;-83
2021/06/30 10:40:13;;;;;;;0.60;0.60;;;;;;;27.29;45.60;97730.44;126303;1093;22826;-83
2021/06/30 10:42:43;;;;;;;1.33;0.80;;;;;;;27.32;45.85;97735.30;126221;1093;22912;-83
2021/06/30 10:45:13;;;;;;;1.40;0.90;;;;;;;27.17;46.73;97731.41;126295;1092;22764;-83
2021/06/30 10:47:43;;;;;;;3.83;1.20;;;;;;;27.21;45.93;97728.67;126310;1093;22759;-82
2021/06/30 10:50:17;;;;;;;1.23;0.60;;;;;;;27.36;47.46;97735.35;126264;1093;22751;-83
2021/06/30 10:52:48;;;;;;;1.93;0.68;;;;;;;27.50;44.39;97734.75;126316;1093;22784;-83
2021/06/30 10:55:51;;;;;;;1.95;0.70;;;;;;;27.60;46.58;97725.72;126455;1093;23470;-83
2021/06/30 10:58:24;;;;;;;1.40;0.87;;;;;;;27.70;44.67;97727.88;125932;1092;22784;-83
2021/06/30 11:00:54;;;;;;;0.80;0.70;;;;;;;27.87;44.15;97726.54;126372;1093;22841;-83
2021/06/30 11:03:37;;;;;;;1.13;0.90;;;;;;;27.89;44.72;97728.94;126313;1093;22757;-83
2021/06/30 11:06:15;;;;;;;2.83;0.70;;;;;;;28.02;44.46;97727.56;126276;1093;22761;-83
2021/06/30 11:08:49;;;;;;;4.75;0.98;;;;;;;28.16;44.13;97715.75;126190;1093;27211;-83
2021/06/30 11:11:22;;;;;;;1.40;0.80;;;;;;;28.14;43.57;97726.53;126302;1092;22848;-83
2021/06/30 11:13:57;;;;;;;2.28;0.90;;;;;;;27.96;45.30;97732.69;126281;1092;22757;-83
2021/06/30 11:19:19;;;;;;;2.40;0.70;;;;;;;27.74;44.53;97723.14;126315;1093;22732;-83
2021/06/30 11:21:51;;;;;;;2.45;1.28;;;;;;;27.81;44.98;97728.03;126362;1093;24271;-83
2021/06/30 11:24:42;;;;;;;2.53;0.73;;;;;;;27.77;44.65;97725.19;126271;1092;22963;-82
2021/06/30 11:27:17;;;;;;;8.55;2.20;;;;;;;27.73;46.57;97729.11;126283;1093;22757;-83
2021/06/30 11:29:58;;;;;;;1.95;0.80;;;;;;;27.77;46.58;97722.39;126248;1092;22912;-83
2021/06/30 11:35:16;;;;;;;1.73;0.85;;;;;;;27.96;44.41;97729.06;126263;1092;26239;-83
2021/06/30 11:38:11;;;;;;;1.83;0.90;;;;;;;28.01;43.92;97721.17;126227;1093;22756;-84
2021/06/30 11:40:47;;;;;;;1.18;0.65;;;;;;;28.10;44.19;97715.28;126333;1093;22790;-83
2021/06/30 11:43:18;;;;;;;0.98;0.88;;;;;;;28.17;44.59;97706.15;126294;1093;22784;-84
2021/06/30 11:46:03;;;;;;;1.25;0.93;;;;;;;28.21;44.39;97719.02;126444;1093;22771;-83